createdAt,value
2022-10-12T00:00:55.709Z,0
2022-10-12T00:02:11.893Z,0
2022-10-12T00:03:28.077Z,0
2022-10-12T00:04:44.259Z,0
2022-10-12T00:06:00.168Z,0
2022-10-12T00:07:16.627Z,0
2022-10-12T00:08:32.830Z,0
2022-10-12T00:09:48.733Z,0
2022-10-12T00:11:04.914Z,0
2022-10-12T00:12:21.376Z,0
2022-10-12T00:13:37.574Z,0
2022-10-12T00:14:53.769Z,0
2022-10-12T00:16:09.946Z,0
2022-10-12T00:17:25.155Z,0
2022-10-12T00:18:41.336Z,0
2022-10-12T00:19:57.520Z,0
2022-10-12T00:21:13.422Z,0
2022-10-12T00:22:29.904Z,0
2022-10-12T00:23:45.795Z,0
2022-10-12T00:25:01.994Z,0
2022-10-12T00:26:18.458Z,0
2022-10-12T00:27:34.651Z,0
2022-10-12T00:28:50.540Z,0
2022-10-12T00:30:07.032Z,0
2022-10-12T00:31:23.207Z,0
2022-10-12T00:32:39.410Z,0
2022-10-12T00:33:54.598Z,0
2022-10-12T00:35:10.791Z,0
2022-10-12T00:36:26.691Z,0
2022-10-12T00:37:43.170Z,0
2022-10-12T00:38:59.347Z,0
2022-10-12T00:40:15.540Z,0
2022-10-12T00:41:31.729Z,0
2022-10-12T00:42:47.909Z,0
2022-10-12T00:44:04.102Z,0
2022-10-12T00:45:20.284Z,0
2022-10-12T00:46:36.475Z,0
2022-10-12T00:47:52.371Z,0
2022-10-12T00:49:08.850Z,0
2022-10-12T00:50:24.047Z,0
2022-10-12T00:51:40.237Z,0
2022-10-12T00:52:56.429Z,0
2022-10-12T00:54:12.624Z,0
2022-10-12T00:55:28.805Z,0
2022-10-12T00:56:44.991Z,0
2022-10-12T00:58:00.882Z,0
2022-10-12T00:59:17.362Z,0
2022-10-12T01:00:33.559Z,0
2022-10-12T01:01:49.744Z,0
2022-10-12T01:03:05.932Z,0
2022-10-12T01:04:22.109Z,0
2022-10-12T01:05:38.309Z,0
2022-10-12T01:06:53.206Z,0
2022-10-12T01:08:09.692Z,0
2022-10-12T01:09:25.877Z,0
2022-10-12T01:10:42.070Z,0
2022-10-12T01:11:57.963Z,0
2022-10-12T01:13:14.451Z,0
2022-10-12T01:14:30.322Z,0
2022-10-12T01:15:46.818Z,0
2022-10-12T01:17:03.010Z,0
2022-10-12T01:18:19.198Z,0
2022-10-12T01:19:35.379Z,0
2022-10-12T01:20:51.565Z,0
2022-10-12T01:22:07.461Z,0
2022-10-12T01:23:22.954Z,0
2022-10-12T01:24:39.145Z,0
2022-10-12T01:25:55.340Z,0
2022-10-12T01:27:11.520Z,0
2022-10-12T01:28:27.403Z,0
2022-10-12T01:29:43.599Z,0
2022-10-12T01:31:00.081Z,0
2022-10-12T01:32:16.266Z,0
2022-10-12T01:33:32.446Z,0
2022-10-12T01:34:48.641Z,0
2022-10-12T01:36:04.837Z,0
2022-10-12T01:37:20.711Z,0
2022-10-12T01:38:37.209Z,0
2022-10-12T01:39:52.418Z,0
2022-10-12T01:41:08.586Z,0
2022-10-12T01:42:24.779Z,0
2022-10-12T01:43:40.673Z,0
2022-10-12T01:44:57.162Z,0
2022-10-12T01:46:13.031Z,0
2022-10-12T01:47:29.531Z,0
2022-10-12T01:48:45.408Z,0
2022-10-12T01:50:01.605Z,0
2022-10-12T01:51:18.085Z,0
2022-10-12T01:52:33.969Z,0
2022-10-12T01:53:50.462Z,0
2022-10-12T01:55:06.664Z,0
2022-10-12T01:56:21.865Z,0
2022-10-12T01:57:38.042Z,0
2022-10-12T01:58:54.244Z,0
2022-10-12T02:00:10.102Z,0
2022-10-12T02:01:26.305Z,0
2022-10-12T02:02:42.797Z,0
2022-10-12T02:03:58.985Z,0
2022-10-12T02:05:15.168Z,0
2022-10-12T02:06:31.366Z,0
2022-10-12T02:07:47.243Z,0
2022-10-12T02:09:03.737Z,0
2022-10-12T02:10:19.599Z,0
2022-10-12T02:11:36.109Z,0
2022-10-12T02:12:50.993Z,0
2022-10-12T02:14:07.181Z,0
2022-10-12T02:15:23.368Z,0
2022-10-12T02:16:39.874Z,0
2022-10-12T02:17:55.751Z,0
2022-10-12T02:19:12.243Z,0
2022-10-12T02:20:28.122Z,0
2022-10-12T02:21:44.616Z,0
2022-10-12T02:23:00.491Z,0
2022-10-12T02:24:16.995Z,0
2022-10-12T02:25:33.179Z,0
2022-10-12T02:26:49.378Z,0
2022-10-12T02:28:05.561Z,0
2022-10-12T02:29:20.772Z,0
2022-10-12T02:30:36.949Z,0
2022-10-12T02:31:53.137Z,0
2022-10-12T02:33:09.319Z,0
2022-10-12T02:34:25.521Z,0
2022-10-12T02:35:41.690Z,0
2022-10-12T02:36:57.878Z,0
2022-10-12T02:38:13.761Z,0
2022-10-12T02:39:29.931Z,0
2022-10-12T02:40:46.138Z,0
2022-10-12T02:42:02.311Z,0
2022-10-12T02:43:18.822Z,0
2022-10-12T02:44:35.012Z,0
2022-10-12T02:45:49.886Z,0
2022-10-12T02:47:06.409Z,0
2022-10-12T02:48:22.588Z,0
2022-10-12T02:49:38.785Z,0
2022-10-12T02:50:54.961Z,0
2022-10-12T02:52:10.838Z,0
2022-10-12T02:53:27.337Z,0
2022-10-12T02:54:43.515Z,0
2022-10-12T02:55:59.710Z,0
2022-10-12T02:57:15.896Z,0
2022-10-12T02:58:31.754Z,0
2022-10-12T02:59:48.274Z,0
2022-10-12T03:01:04.144Z,0
2022-10-12T03:02:19.675Z,0
2022-10-12T03:03:35.856Z,0
2022-10-12T03:04:51.718Z,0
2022-10-12T03:06:08.236Z,0
2022-10-12T03:07:24.415Z,0
2022-10-12T03:08:40.266Z,0
2022-10-12T03:09:56.780Z,0
2022-10-12T03:11:12.967Z,0
2022-10-12T03:12:29.162Z,0
2022-10-12T03:13:45.347Z,0
2022-10-12T03:15:01.530Z,0
2022-10-12T03:16:17.396Z,0
2022-10-12T03:18:50.098Z,0
2022-10-12T03:20:05.309Z,0
2022-10-12T03:21:21.158Z,0
2022-10-12T03:22:37.675Z,0
2022-10-12T03:23:53.538Z,0
2022-10-12T03:25:09.717Z,0
2022-10-12T03:26:25.255Z,0
2022-10-12T03:27:41.449Z,0
2022-10-12T03:28:57.633Z,0
2022-10-12T03:30:13.817Z,0
2022-10-12T03:31:29.667Z,0
2022-10-12T03:32:46.202Z,0
2022-10-12T03:34:02.380Z,0
2022-10-12T03:35:18.565Z,0
2022-10-12T03:36:34.425Z,0
2022-10-12T03:37:50.935Z,0
2022-10-12T03:39:06.804Z,0
2022-10-12T03:40:23.314Z,0
2022-10-12T03:41:39.510Z,0
2022-10-12T03:42:54.718Z,0
2022-10-12T03:44:10.557Z,0
2022-10-12T03:45:27.081Z,0
2022-10-12T03:46:42.929Z,0
2022-10-12T03:47:59.452Z,0
2022-10-12T03:49:15.645Z,0
2022-10-12T03:50:31.833Z,0
2022-10-12T03:51:48.025Z,0
2022-10-12T03:53:04.204Z,0
2022-10-12T03:54:20.403Z,0
2022-10-12T03:55:36.586Z,0
2022-10-12T03:56:52.774Z,0
2022-10-12T03:58:08.950Z,0
2022-10-12T03:59:23.815Z,0
2022-10-12T04:00:40.348Z,0
2022-10-12T04:01:56.201Z,0
2022-10-12T04:03:12.724Z,0
2022-10-12T04:04:28.904Z,0
2022-10-12T04:05:45.105Z,0
2022-10-12T04:07:01.294Z,0
2022-10-12T04:08:17.470Z,0
2022-10-12T04:09:33.666Z,0
2022-10-12T04:10:49.839Z,0
2022-10-12T04:12:06.038Z,0
2022-10-12T04:13:22.219Z,0
2022-10-12T04:14:38.415Z,0
2022-10-12T04:15:53.261Z,0
2022-10-12T04:17:09.460Z,0
2022-10-12T04:18:25.639Z,0
2022-10-12T04:19:42.175Z,0
2022-10-12T04:20:58.019Z,0
2022-10-12T04:22:14.545Z,0
2022-10-12T04:23:30.727Z,0
2022-10-12T04:24:46.585Z,0
2022-10-12T04:26:03.105Z,0
2022-10-12T04:27:19.288Z,0
2022-10-12T04:28:35.475Z,0
2022-10-12T04:29:51.325Z,0
2022-10-12T04:31:07.861Z,0
2022-10-12T04:32:22.713Z,0
2022-10-12T04:33:38.912Z,0
2022-10-12T04:34:55.438Z,0
2022-10-12T04:36:11.626Z,0
2022-10-12T04:37:27.475Z,0
2022-10-12T04:38:43.649Z,0
2022-10-12T04:39:59.842Z,0
2022-10-12T04:41:16.380Z,0
2022-10-12T04:42:32.568Z,0
2022-10-12T04:43:48.755Z,0
2022-10-12T04:45:04.942Z,0
2022-10-12T04:46:21.121Z,0
2022-10-12T04:47:36.973Z,0
2022-10-12T04:48:52.504Z,0
2022-10-12T04:50:08.705Z,0
2022-10-12T04:51:24.878Z,0
2022-10-12T04:52:41.068Z,0
2022-10-12T04:53:57.255Z,0
2022-10-12T04:55:13.104Z,0
2022-10-12T04:56:29.639Z,0
2022-10-12T04:57:45.823Z,0
2022-10-12T04:59:02.019Z,0
2022-10-12T05:00:18.199Z,0
2022-10-12T05:01:34.377Z,0
2022-10-12T05:02:50.579Z,0
2022-10-12T05:04:06.752Z,0
2022-10-12T05:05:21.972Z,0
2022-10-12T05:06:38.161Z,0
2022-10-12T05:07:54.343Z,0
2022-10-12T05:09:10.518Z,0
2022-10-12T05:10:26.361Z,0
2022-10-12T05:11:42.557Z,0
2022-10-12T05:12:58.742Z,0
2022-10-12T05:14:15.284Z,0
2022-10-12T05:15:31.457Z,0
2022-10-12T05:16:47.653Z,0
2022-10-12T05:18:03.491Z,0
2022-10-12T05:19:20.017Z,0
2022-10-12T05:20:36.206Z,0
2022-10-12T05:21:51.409Z,0
2022-10-12T05:23:07.605Z,0
2022-10-12T05:24:23.434Z,0
2022-10-12T05:25:39.634Z,0
2022-10-12T05:26:56.174Z,0
2022-10-12T05:28:12.012Z,0
2022-10-12T05:29:28.553Z,0
2022-10-12T05:30:44.740Z,0
2022-10-12T05:32:00.925Z,0
2022-10-12T05:33:17.118Z,0
2022-10-12T05:34:33.301Z,0
2022-10-12T05:35:49.503Z,5
2022-10-12T05:37:05.325Z,5
2022-10-12T05:38:20.893Z,5
2022-10-12T05:39:37.071Z,5
2022-10-12T05:40:52.904Z,5
2022-10-12T05:42:09.461Z,5
2022-10-12T05:43:25.637Z,5
2022-10-12T05:44:41.462Z,5
2022-10-12T05:45:57.659Z,5
2022-10-12T05:47:14.203Z,5
2022-10-12T05:48:30.028Z,5
2022-10-12T05:49:46.223Z,11
2022-10-12T05:51:02.418Z,11
2022-10-12T05:52:18.973Z,11
2022-10-12T05:53:35.156Z,11
2022-10-12T05:54:50.359Z,11
2022-10-12T05:56:06.458Z,11
2022-10-12T05:57:22.732Z,11
2022-10-12T05:58:38.918Z,11
2022-10-12T05:59:55.111Z,11
2022-10-12T06:01:11.301Z,11
2022-10-12T06:02:27.399Z,11
2022-10-12T06:03:43.683Z,16
2022-10-12T06:04:59.872Z,16
2022-10-12T06:06:15.982Z,16
2022-10-12T06:07:32.246Z,16
2022-10-12T06:08:48.444Z,16
2022-10-12T06:10:04.616Z,16
2022-10-12T06:11:19.756Z,16
2022-10-12T06:12:36.013Z,16
2022-10-12T06:13:52.197Z,16
2022-10-12T06:15:08.399Z,16
2022-10-12T06:16:24.578Z,22
2022-10-12T06:17:40.763Z,22
2022-10-12T06:18:56.966Z,22
2022-10-12T06:20:13.147Z,22
2022-10-12T06:21:29.330Z,22
2022-10-12T06:22:45.537Z,22
2022-10-12T06:24:01.642Z,22
2022-10-12T06:25:17.914Z,22
2022-10-12T06:26:34.008Z,22
2022-10-12T06:27:49.292Z,22
2022-10-12T06:29:05.490Z,28
2022-10-12T06:30:21.682Z,28
2022-10-12T06:31:37.860Z,28
2022-10-12T06:32:53.974Z,28
2022-10-12T06:34:10.155Z,28
2022-10-12T06:35:26.343Z,28
2022-10-12T06:36:42.613Z,28
2022-10-12T06:37:58.728Z,28
2022-10-12T06:39:15.004Z,28
2022-10-12T06:40:31.098Z,28
2022-10-12T06:41:47.279Z,28
2022-10-12T06:43:03.557Z,33
2022-10-12T06:44:18.000Z,33
2022-10-12T06:45:34.865Z,33
2022-10-12T06:46:51.149Z,33
2022-10-12T06:48:07.259Z,33
2022-10-12T06:49:23.534Z,33
2022-10-12T06:50:39.725Z,33
2022-10-12T06:51:55.822Z,33
2022-10-12T06:53:12.012Z,33
2022-10-12T06:54:28.287Z,33
2022-10-12T06:55:44.476Z,33
2022-10-12T06:57:00.667Z,33
2022-10-12T06:58:16.849Z,33
2022-10-12T06:59:33.040Z,39
2022-10-12T07:00:48.236Z,39
2022-10-12T07:02:04.349Z,39
2022-10-12T07:03:20.531Z,39
2022-10-12T07:04:36.727Z,39
2022-10-12T07:05:52.908Z,39
2022-10-12T07:07:09.181Z,39
2022-10-12T07:08:25.386Z,39
2022-10-12T07:09:41.567Z,39
2022-10-12T07:10:57.761Z,39
2022-10-12T07:12:13.857Z,39
2022-10-12T07:13:30.035Z,39
2022-10-12T07:14:46.231Z,39
2022-10-12T07:16:02.509Z,39
2022-10-12T07:17:18.693Z,39
2022-10-12T07:18:33.799Z,39
2022-10-12T07:19:49.999Z,45
2022-10-12T07:21:06.276Z,45
2022-10-12T07:22:22.369Z,45
2022-10-12T07:23:38.570Z,45
2022-10-12T07:24:54.843Z,45
2022-10-12T07:26:10.946Z,45
2022-10-12T07:27:27.234Z,45
2022-10-12T07:28:43.323Z,45
2022-10-12T07:29:59.609Z,45
2022-10-12T07:31:15.801Z,45
2022-10-12T07:32:31.890Z,45
2022-10-12T07:33:48.181Z,45
2022-10-12T07:35:03.286Z,45
2022-10-12T07:36:19.000Z,45
2022-10-12T07:37:35.764Z,50
2022-10-12T07:38:51.958Z,50
2022-10-12T07:40:08.129Z,50
2022-10-12T07:41:23.239Z,50
2022-10-12T07:42:39.000Z,50
2022-10-12T07:43:55.620Z,50
2022-10-12T07:45:11.911Z,50
2022-10-12T07:46:28.101Z,50
2022-10-12T07:47:44.189Z,56
2022-10-12T07:49:00.475Z,56
2022-10-12T07:50:16.576Z,56
2022-10-12T07:51:32.863Z,56
2022-10-12T07:52:49.053Z,56
2022-10-12T07:54:05.235Z,56
2022-10-12T07:55:21.422Z,56
2022-10-12T07:56:37.503Z,56
2022-10-12T07:57:52.724Z,56
2022-10-12T07:59:09.020Z,56
2022-10-12T08:00:25.220Z,56
2022-10-12T08:01:41.396Z,56
2022-10-12T08:02:57.585Z,56
2022-10-12T08:04:13.662Z,56
2022-10-12T08:05:29.854Z,56
2022-10-12T08:06:46.147Z,56
2022-10-12T08:08:02.224Z,56
2022-10-12T08:09:18.536Z,61
2022-10-12T08:10:34.710Z,61
2022-10-12T08:11:50.802Z,61
2022-10-12T08:13:06.993Z,61
2022-10-12T08:14:22.294Z,61
2022-10-12T08:15:38.480Z,61
2022-10-12T08:16:54.565Z,56
2022-10-12T08:18:10.753Z,56
2022-10-12T08:19:27.059Z,56
2022-10-12T08:20:43.122Z,56
2022-10-12T08:21:59.325Z,56
2022-10-12T08:23:15.630Z,56
2022-10-12T08:24:31.808Z,56
2022-10-12T08:25:47.997Z,56
2022-10-12T08:27:04.189Z,56
2022-10-12T08:28:20.263Z,56
2022-10-12T08:29:36.446Z,61
2022-10-12T08:30:51.779Z,61
2022-10-12T08:32:07.961Z,61
2022-10-12T08:33:24.162Z,56
2022-10-12T08:34:40.218Z,56
2022-10-12T08:35:56.412Z,56
2022-10-12T08:37:12.595Z,56
2022-10-12T08:38:28.910Z,56
2022-10-12T08:39:44.985Z,56
2022-10-12T08:41:01.162Z,56
2022-10-12T08:42:17.487Z,56
2022-10-12T08:43:33.551Z,61
2022-10-12T08:44:49.862Z,61
2022-10-12T08:46:06.038Z,61
2022-10-12T08:47:21.132Z,61
2022-10-12T08:48:37.435Z,61
2022-10-12T08:49:53.507Z,61
2022-10-12T08:51:09.706Z,61
2022-10-12T08:52:25.996Z,61
2022-10-12T08:53:42.201Z,61
2022-10-12T08:54:58.272Z,61
2022-10-12T08:56:14.446Z,61
2022-10-12T08:57:30.645Z,61
2022-10-12T08:58:46.822Z,56
2022-10-12T09:00:03.013Z,61
2022-10-12T09:01:19.332Z,61
2022-10-12T09:02:35.520Z,61
2022-10-12T09:03:50.592Z,61
2022-10-12T09:05:06.909Z,61
2022-10-12T09:06:22.973Z,61
2022-10-12T09:07:39.292Z,61
2022-10-12T09:08:55.482Z,61
2022-10-12T09:10:11.555Z,61
2022-10-12T09:11:27.860Z,61
2022-10-12T09:12:43.927Z,61
2022-10-12T09:14:00.115Z,67
2022-10-12T09:15:16.417Z,67
2022-10-12T09:16:32.607Z,67
2022-10-12T09:17:48.804Z,67
2022-10-12T09:19:05.001Z,67
2022-10-12T09:20:20.201Z,67
2022-10-12T09:21:36.257Z,67
2022-10-12T09:22:52.455Z,73
2022-10-12T09:24:08.762Z,73
2022-10-12T09:25:24.824Z,73
2022-10-12T09:26:41.148Z,73
2022-10-12T09:27:57.341Z,73
2022-10-12T09:29:13.389Z,73
2022-10-12T09:30:29.590Z,78
2022-10-12T09:31:45.907Z,78
2022-10-12T09:33:02.099Z,78
2022-10-12T09:34:18.279Z,78
2022-10-12T09:35:34.464Z,78
2022-10-12T09:36:49.552Z,84
2022-10-12T09:38:05.724Z,84
2022-10-12T09:39:22.059Z,90
2022-10-12T09:40:38.247Z,90
2022-10-12T09:41:54.438Z,90
2022-10-12T09:43:10.627Z,90
2022-10-12T09:44:26.688Z,90
2022-10-12T09:45:43.005Z,90
2022-10-12T09:46:59.195Z,95
2022-10-12T09:48:15.374Z,95
2022-10-12T09:49:31.435Z,95
2022-10-12T09:50:47.624Z,95
2022-10-12T09:52:03.951Z,95
2022-10-12T09:53:19.146Z,95
2022-10-12T09:54:35.336Z,101
2022-10-12T09:55:51.529Z,101
2022-10-12T09:57:07.590Z,101
2022-10-12T09:58:23.908Z,101
2022-10-12T09:59:40.083Z,101
2022-10-12T10:00:56.281Z,101
2022-10-12T10:02:12.473Z,101
2022-10-12T10:03:28.525Z,101
2022-10-12T10:04:44.851Z,106
2022-10-12T10:06:01.031Z,106
2022-10-12T10:07:17.086Z,106
2022-10-12T10:08:33.415Z,106
2022-10-12T10:09:48.490Z,106
2022-10-12T10:11:04.681Z,106
2022-10-12T10:13:37.182Z,112
2022-10-12T10:14:53.241Z,118
2022-10-12T10:16:09.421Z,118
2022-10-12T10:17:25.750Z,123
2022-10-12T10:18:41.811Z,123
2022-10-12T10:19:58.000Z,129
2022-10-12T10:21:14.180Z,129
2022-10-12T10:22:30.361Z,129
2022-10-12T10:23:46.691Z,135
2022-10-12T10:25:02.892Z,135
2022-10-12T10:26:18.091Z,140
2022-10-12T10:27:34.278Z,140
2022-10-12T10:28:50.328Z,140
2022-10-12T10:30:06.650Z,146
2022-10-12T10:31:22.849Z,146
2022-10-12T10:32:39.038Z,146
2022-10-12T10:33:55.227Z,151
2022-10-12T10:35:11.280Z,151
2022-10-12T10:36:27.612Z,151
2022-10-12T10:37:43.790Z,157
2022-10-12T10:38:59.975Z,157
2022-10-12T10:40:16.177Z,163
2022-10-12T10:41:32.216Z,163
2022-10-12T10:42:47.573Z,163
2022-10-12T10:44:03.756Z,163
2022-10-12T10:45:19.941Z,168
2022-10-12T10:46:36.138Z,168
2022-10-12T10:47:52.321Z,174
2022-10-12T10:49:08.502Z,174
2022-10-12T10:50:24.697Z,174
2022-10-12T10:51:40.891Z,174
2022-10-12T10:52:56.932Z,174
2022-10-12T10:54:13.128Z,180
2022-10-12T10:55:29.455Z,180
2022-10-12T10:56:45.636Z,180
2022-10-12T10:58:01.840Z,185
2022-10-12T10:59:17.037Z,185
2022-10-12T11:00:33.079Z,185
2022-10-12T11:01:49.416Z,191
2022-10-12T11:03:05.608Z,196
2022-10-12T11:04:21.793Z,202
2022-10-12T11:05:37.979Z,202
2022-10-12T11:06:54.024Z,208
2022-10-12T11:08:10.368Z,219
2022-10-12T11:09:26.546Z,225
2022-10-12T11:10:42.736Z,225
2022-10-12T11:11:58.937Z,230
2022-10-12T11:13:15.126Z,230
2022-10-12T11:14:31.308Z,241
2022-10-12T11:15:46.356Z,253
2022-10-12T11:17:02.695Z,253
2022-10-12T11:18:18.887Z,264
2022-10-12T11:19:34.926Z,258
2022-10-12T11:20:51.113Z,270
2022-10-12T11:22:07.456Z,275
2022-10-12T11:23:23.490Z,281
2022-10-12T11:24:39.841Z,286
2022-10-12T11:25:56.028Z,286
2022-10-12T11:27:12.064Z,292
2022-10-12T11:28:28.254Z,298
2022-10-12T11:29:44.598Z,303
2022-10-12T11:31:00.638Z,315
2022-10-12T11:32:15.825Z,309
2022-10-12T11:38:36.771Z,1490
2022-10-12T11:39:52.961Z,1378
2022-10-12T11:41:09.232Z,151
2022-10-12T11:42:25.408Z,168
2022-10-12T11:44:57.783Z,1766
2022-10-12T11:46:13.908Z,1496
2022-10-12T11:47:30.098Z,1473
2022-10-12T11:50:01.575Z,309
2022-10-12T11:51:17.679Z,1676
2022-10-12T11:52:33.878Z,213
2022-10-12T11:53:50.059Z,225
2022-10-12T11:55:06.325Z,421
2022-10-12T11:56:21.538Z,1794
2022-10-12T11:57:37.658Z,1901
2022-10-12T11:58:53.834Z,1254
2022-10-12T12:00:10.104Z,1231
2022-10-12T12:01:26.225Z,1895
2022-10-12T12:02:42.481Z,1923
2022-10-12T12:03:58.588Z,1923
2022-10-12T12:05:14.788Z,1873
2022-10-12T12:06:30.964Z,1861
2022-10-12T12:07:47.243Z,1895
2022-10-12T12:09:03.423Z,1777
2022-10-12T12:10:19.540Z,1164
2022-10-12T12:11:35.800Z,1738
2022-10-12T12:12:51.017Z,1822
2022-10-12T12:14:07.124Z,1873
2022-10-12T12:15:23.379Z,2019
2022-10-12T12:16:39.500Z,2058
2022-10-12T12:17:55.768Z,2070
2022-10-12T12:19:11.951Z,2002
2022-10-12T12:20:28.146Z,1963
2022-10-12T12:21:44.244Z,1890
2022-10-12T12:23:00.527Z,720
2022-10-12T12:24:16.622Z,1974
2022-10-12T12:25:32.891Z,2036
2022-10-12T12:26:49.082Z,2109
2022-10-12T12:28:05.280Z,2008
2022-10-12T12:29:20.475Z,2137
2022-10-12T12:30:36.673Z,2137
2022-10-12T12:31:52.870Z,2058
2022-10-12T12:33:08.971Z,2109
2022-10-12T12:34:25.153Z,2058
2022-10-12T12:35:41.352Z,2030
2022-10-12T12:36:57.618Z,2036
2022-10-12T12:38:13.816Z,2002
2022-10-12T12:39:29.904Z,1468
2022-10-12T12:40:46.178Z,691
2022-10-12T12:42:02.377Z,298
2022-10-12T12:43:18.556Z,208
2022-10-12T12:44:34.660Z,253
2022-10-12T12:45:49.954Z,258
2022-10-12T12:47:06.143Z,230
2022-10-12T12:48:22.249Z,213
2022-10-12T12:49:38.518Z,230
2022-10-12T12:50:54.710Z,236
2022-10-12T12:52:10.901Z,230
2022-10-12T12:53:27.086Z,208
2022-10-12T12:54:43.185Z,191
2022-10-12T12:55:59.392Z,185
2022-10-12T12:57:15.665Z,157
2022-10-12T12:58:31.844Z,135
2022-10-12T12:59:48.044Z,123
2022-10-12T13:01:04.222Z,123
2022-10-12T13:02:19.438Z,118
2022-10-12T13:03:35.612Z,123
2022-10-12T13:04:51.805Z,123
2022-10-12T13:06:08.000Z,129
2022-10-12T13:07:24.181Z,140
2022-10-12T13:08:40.385Z,157
2022-10-12T13:09:56.471Z,168
2022-10-12T13:11:12.764Z,180
2022-10-12T13:12:28.950Z,191
2022-10-12T13:13:45.127Z,185
2022-10-12T13:15:01.313Z,163
2022-10-12T13:16:17.520Z,140
2022-10-12T13:17:33.604Z,112
2022-10-12T13:18:48.904Z,106
2022-10-12T13:20:05.103Z,101
2022-10-12T13:21:21.198Z,101
2022-10-12T13:22:37.466Z,101
2022-10-12T13:23:53.658Z,101
2022-10-12T13:25:09.859Z,106
2022-10-12T13:26:25.950Z,106
2022-10-12T13:27:42.221Z,101
2022-10-12T13:28:58.413Z,101
2022-10-12T13:30:14.606Z,101
2022-10-12T13:31:30.705Z,95
2022-10-12T13:32:46.881Z,95
2022-10-12T13:34:03.183Z,95
2022-10-12T13:35:18.380Z,106
2022-10-12T13:36:34.463Z,106
2022-10-12T13:37:50.765Z,95
2022-10-12T13:39:06.851Z,90
2022-10-12T13:40:23.032Z,90
2022-10-12T13:41:39.232Z,90
2022-10-12T13:42:55.515Z,90
2022-10-12T13:44:11.708Z,90
2022-10-12T13:45:27.897Z,84
2022-10-12T13:46:44.077Z,84
2022-10-12T13:48:00.162Z,84
2022-10-12T13:49:16.454Z,84
2022-10-12T13:50:32.646Z,90
2022-10-12T13:51:47.755Z,101
2022-10-12T13:53:03.942Z,112
2022-10-12T13:54:20.233Z,118
2022-10-12T13:55:36.311Z,101
2022-10-12T13:56:52.614Z,90
2022-10-12T13:58:08.794Z,78
2022-10-12T13:59:24.994Z,73
2022-10-12T14:00:41.069Z,73
2022-10-12T14:01:57.366Z,73
2022-10-12T14:03:13.458Z,73
2022-10-12T14:04:29.648Z,67
2022-10-12T14:05:45.934Z,67
2022-10-12T14:07:02.115Z,73
2022-10-12T14:08:17.223Z,73
2022-10-12T14:09:33.526Z,73
2022-10-12T14:10:49.600Z,67
2022-10-12T14:12:05.896Z,67
2022-10-12T14:13:22.089Z,61
2022-10-12T14:14:38.274Z,61
2022-10-12T14:15:54.348Z,61
2022-10-12T14:17:10.548Z,61
2022-10-12T14:18:26.837Z,61
2022-10-12T14:19:43.036Z,61
2022-10-12T14:20:59.223Z,61
2022-10-12T14:22:15.398Z,61
2022-10-12T14:23:31.484Z,56
2022-10-12T14:24:46.791Z,56
2022-10-12T14:26:02.982Z,56
2022-10-12T14:27:19.063Z,56
2022-10-12T14:28:35.370Z,56
2022-10-12T14:29:51.452Z,56
2022-10-12T14:31:07.633Z,56
2022-10-12T14:32:23.931Z,56
2022-10-12T14:33:40.009Z,56
2022-10-12T14:34:56.312Z,56
2022-10-12T14:36:12.503Z,56
2022-10-12T14:37:28.681Z,56
2022-10-12T14:38:44.883Z,50
2022-10-12T14:40:01.069Z,50
2022-10-12T14:41:16.272Z,50
2022-10-12T14:42:32.468Z,50
2022-10-12T14:43:48.644Z,50
2022-10-12T14:45:04.840Z,50
2022-10-12T14:46:20.927Z,50
2022-10-12T14:47:37.213Z,50
2022-10-12T14:48:53.293Z,45
2022-10-12T14:50:09.607Z,45
2022-10-12T14:51:25.781Z,45
2022-10-12T14:52:41.977Z,45
2022-10-12T14:53:58.170Z,45
2022-10-12T14:55:14.246Z,45
2022-10-12T14:56:30.421Z,45
2022-10-12T14:57:45.731Z,45
2022-10-12T14:59:01.935Z,45
2022-10-12T15:00:18.118Z,39
2022-10-12T15:01:34.183Z,39
2022-10-12T15:02:50.492Z,39
2022-10-12T15:04:06.683Z,39
2022-10-12T15:05:22.856Z,39
2022-10-12T15:06:39.051Z,39
2022-10-12T15:07:55.125Z,39
2022-10-12T15:09:11.416Z,33
2022-10-12T15:10:27.609Z,33
2022-10-12T15:11:43.693Z,33
2022-10-12T15:12:59.979Z,33
2022-10-12T15:14:15.182Z,33
2022-10-12T15:15:31.378Z,33
2022-10-12T15:16:47.445Z,33
2022-10-12T15:18:03.762Z,28
2022-10-12T15:19:19.930Z,28
2022-10-12T15:20:36.000Z,28
2022-10-12T15:21:52.318Z,28
2022-10-12T15:23:08.502Z,28
2022-10-12T15:24:24.685Z,28
2022-10-12T15:25:40.751Z,28
2022-10-12T15:26:57.063Z,28
2022-10-12T15:28:13.259Z,28
2022-10-12T15:29:29.323Z,22
2022-10-12T15:30:44.650Z,22
2022-10-12T15:32:00.824Z,22
2022-10-12T15:33:16.897Z,22
2022-10-12T15:34:33.072Z,22
2022-10-12T15:35:49.393Z,22
2022-10-12T15:37:05.575Z,22
2022-10-12T15:38:21.649Z,22
2022-10-12T15:39:37.953Z,16
2022-10-12T15:40:54.131Z,16
2022-10-12T15:42:10.194Z,16
2022-10-12T15:43:26.504Z,16
2022-10-12T15:44:42.709Z,16
2022-10-12T15:45:58.765Z,16
2022-10-12T15:47:13.959Z,16
2022-10-12T15:48:30.275Z,16
2022-10-12T15:49:46.338Z,11
2022-10-12T15:51:02.657Z,11
2022-10-12T15:52:18.833Z,11
2022-10-12T15:53:34.893Z,11
2022-10-12T15:54:51.216Z,11
2022-10-12T15:56:07.409Z,11
2022-10-12T15:57:23.472Z,11
2022-10-12T15:58:39.646Z,11
2022-10-12T15:59:55.957Z,5
2022-10-12T16:01:12.019Z,5
2022-10-12T16:02:28.343Z,5
2022-10-12T16:03:43.534Z,5
2022-10-12T16:04:59.591Z,5
2022-10-12T16:06:15.923Z,5
2022-10-12T16:07:32.096Z,5
2022-10-12T16:08:48.282Z,5
2022-10-12T16:10:04.484Z,5
2022-10-12T16:11:19.550Z,5
2022-10-12T16:12:35.879Z,0
2022-10-12T16:13:51.928Z,0
2022-10-12T16:15:08.252Z,0
2022-10-12T16:16:24.427Z,0
2022-10-12T16:17:40.619Z,0
2022-10-12T16:18:56.811Z,0
2022-10-12T16:20:12.991Z,0
2022-10-12T16:21:29.055Z,0
2022-10-12T16:22:45.381Z,0
2022-10-12T16:24:01.419Z,0
2022-10-12T16:25:17.747Z,0
2022-10-12T16:26:33.931Z,0
2022-10-12T16:27:49.142Z,0
2022-10-12T16:29:05.322Z,0
2022-10-12T16:30:21.519Z,0
2022-10-12T16:31:37.705Z,0
2022-10-12T16:32:53.754Z,0
2022-10-12T16:34:10.073Z,0
2022-10-12T16:35:26.262Z,0
2022-10-12T16:36:42.309Z,0
2022-10-12T16:37:58.630Z,0
2022-10-12T16:39:14.819Z,0
2022-10-12T16:40:31.009Z,0
2022-10-12T16:41:47.200Z,0
2022-10-12T16:43:03.382Z,0
2022-10-12T16:44:18.591Z,0
2022-10-12T16:45:34.783Z,0
2022-10-12T16:46:50.955Z,0
2022-10-12T16:48:07.145Z,0
2022-10-12T16:49:23.203Z,0
2022-10-12T16:50:39.395Z,0
2022-10-12T16:51:55.720Z,0
2022-10-12T16:53:11.894Z,0
2022-10-12T16:54:28.084Z,0
2022-10-12T16:55:44.274Z,0
2022-10-12T16:57:00.322Z,0
2022-10-12T16:58:16.496Z,0
2022-10-12T16:59:32.838Z,0
2022-10-12T17:00:48.041Z,0
2022-10-12T17:02:04.084Z,0
2022-10-12T17:03:20.279Z,0
2022-10-12T17:04:36.610Z,0
2022-10-12T17:05:52.781Z,0
2022-10-12T17:07:08.968Z,0
2022-10-12T17:08:25.153Z,0
2022-10-12T17:09:41.353Z,0
2022-10-12T17:10:57.529Z,0
2022-10-12T17:12:13.575Z,0
2022-10-12T17:13:29.914Z,0
2022-10-12T17:16:02.285Z,0
2022-10-12T17:17:17.490Z,0
2022-10-12T17:18:33.666Z,0
2022-10-12T17:19:49.866Z,0
2022-10-12T17:21:05.895Z,0
2022-10-12T17:22:22.242Z,0
2022-10-12T17:23:38.433Z,0
2022-10-12T17:24:54.612Z,0
2022-10-12T17:26:10.795Z,0
2022-10-12T17:27:26.841Z,0
2022-10-12T17:28:43.023Z,0
2022-10-12T17:29:59.354Z,0
2022-10-12T17:31:15.548Z,0
2022-10-12T17:32:31.725Z,0
2022-10-12T17:33:46.789Z,0
2022-10-12T17:35:03.117Z,0
2022-10-12T17:36:19.155Z,0
2022-10-12T17:37:35.493Z,0
2022-10-12T17:38:51.684Z,0
2022-10-12T17:40:07.721Z,0
2022-10-12T17:41:24.053Z,0
2022-10-12T17:42:40.258Z,0
2022-10-12T17:43:56.287Z,0
2022-10-12T17:45:12.618Z,0
2022-10-12T17:46:28.813Z,0
2022-10-12T17:47:44.998Z,0
2022-10-12T17:49:01.191Z,0
2022-10-12T17:50:16.390Z,0
2022-10-12T17:51:32.571Z,0
2022-10-12T17:54:04.945Z,0
2022-10-12T17:55:21.132Z,0
2022-10-12T17:56:37.324Z,0
2022-10-12T17:57:53.505Z,0
2022-10-12T17:59:09.550Z,0
2022-10-12T18:00:25.736Z,0
2022-10-12T18:01:42.084Z,0
2022-10-12T18:02:58.257Z,0
2022-10-12T18:04:14.440Z,0
2022-10-12T18:05:30.490Z,0
2022-10-12T18:06:45.828Z,0
2022-10-12T18:08:02.018Z,0
2022-10-12T18:09:18.210Z,0
2022-10-12T18:10:34.396Z,0
2022-10-12T18:11:50.579Z,0
2022-10-12T18:13:06.770Z,0
2022-10-12T18:14:22.805Z,0
2022-10-12T18:15:39.151Z,0
2022-10-12T18:16:55.186Z,0
2022-10-12T18:18:11.362Z,0
2022-10-12T18:19:27.711Z,0
2022-10-12T18:20:43.889Z,0
2022-10-12T18:21:59.923Z,0
2022-10-12T18:23:15.297Z,0
2022-10-12T18:24:31.473Z,0
2022-10-12T18:25:47.669Z,0